sensor_id;sensor_type;location;lat;lon;timestamp;P1;durP1;ratioP1;P2;durP2;ratioP2
934;SDS011;454;53.254;10.400;2023-06-22T04:02:11;3.80;;;3.60;;
934;SDS011;454;53.254;10.400;2023-06-22T04:04:38;2.80;;;2.70;;
934;SDS011;454;53.254;10.400;2023-06-22T04:07:05;2.90;;;2.70;;
934;SDS011;454;53.254;10.400;2023-06-22T04:09:31;2.80;;;2.60;;
934;SDS011;454;53.254;10.400;2023-06-22T04:11:58;3.47;;;3.27;;
934;SDS011;454;53.254;10.400;2023-06-22T04:14:25;3.87;;;3.60;;
934;SDS011;454;53.254;10.400;2023-06-22T04:16:52;2.73;;;2.63;;
934;SDS011;454;53.254;10.400;2023-06-22T04:19:20;2.97;;;2.87;;
934;SDS011;454;53.254;10.400;2023-06-22T04:21:47;3.70;;;3.50;;
934;SDS011;454;53.254;10.400;2023-06-22T04:24:14;3.13;;;2.93;;
934;SDS011;454;53.254;10.400;2023-06-22T04:26:41;2.93;;;2.83;;
934;SDS011;454;53.254;10.400;2023-06-22T04:29:10;2.80;;;2.70;;
934;SDS011;454;53.254;10.400;2023-06-22T04:31:37;5.47;;;3.43;;
934;SDS011;454;53.254;10.400;2023-06-22T04:34:04;3.60;;;3.30;;
934;SDS011;454;53.254;10.400;2023-06-22T04:36:34;4.20;;;3.90;;
934;SDS011;454;53.254;10.400;2023-06-22T04:39:04;3.53;;;2.77;;
934;SDS011;454;53.254;10.400;2023-06-22T04:41:32;3.23;;;3.00;;
934;SDS011;454;53.254;10.400;2023-06-22T04:44:06;2.73;;;2.63;;
934;SDS011;454;53.254;10.400;2023-06-22T04:46:34;2.67;;;2.57;;
934;SDS011;454;53.254;10.400;2023-06-22T04:49:04;2.40;;;2.40;;
934;SDS011;454;53.254;10.400;2023-06-22T04:51:36;3.03;;;2.87;;
934;SDS011;454;53.254;10.400;2023-06-22T04:54:03;2.07;;;2.07;;
934;SDS011;454;53.254;10.400;2023-06-22T04:56:30;1.93;;;1.83;;
934;SDS011;454;53.254;10.400;2023-06-22T04:58:57;2.67;;;2.63;;
934;SDS011;454;53.254;10.400;2023-06-22T05:01:24;2.87;;;2.67;;
934;SDS011;454;53.254;10.400;2023-06-22T05:03:51;2.77;;;2.57;;
934;SDS011;454;53.254;10.400;2023-06-22T05:06:20;2.30;;;2.20;;
934;SDS011;454;53.254;10.400;2023-06-22T05:08:50;2.23;;;2.23;;
934;SDS011;454;53.254;10.400;2023-06-22T05:11:18;2.80;;;2.60;;
934;SDS011;454;53.254;10.400;2023-06-22T05:13:45;2.07;;;2.07;;
934;SDS011;454;53.254;10.400;2023-06-22T05:16:11;2.50;;;2.40;;
934;SDS011;454;53.254;10.400;2023-06-22T05:18:38;1.97;;;1.87;;
934;SDS011;454;53.254;10.400;2023-06-22T05:21:06;2.00;;;2.00;;
934;SDS011;454;53.254;10.400;2023-06-22T05:23:33;2.13;;;2.03;;
934;SDS011;454;53.254;10.400;2023-06-22T05:26:01;2.17;;;2.07;;
934;SDS011;454;53.254;10.400;2023-06-22T05:28:28;2.40;;;2.30;;
934;SDS011;454;53.254;10.400;2023-06-22T05:30:55;2.30;;;2.20;;
934;SDS011;454;53.254;10.400;2023-06-22T05:33:22;2.53;;;2.43;;
934;SDS011;454;53.254;10.400;2023-06-22T05:35:48;2.10;;;2.00;;
934;SDS011;454;53.254;10.400;2023-06-22T05:38:15;2.20;;;2.10;;
934;SDS011;454;53.254;10.400;2023-06-22T05:40:42;2.20;;;2.00;;
934;SDS011;454;53.254;10.400;2023-06-22T05:43:10;2.27;;;2.20;;
934;SDS011;454;53.254;10.400;2023-06-22T05:45:36;1.50;;;1.50;;
934;SDS011;454;53.254;10.400;2023-06-22T05:48:03;2.70;;;2.50;;
934;SDS011;454;53.254;10.400;2023-06-22T05:50:31;2.30;;;2.13;;
934;SDS011;454;53.254;10.400;2023-06-22T05:52:57;1.70;;;1.70;;
934;SDS011;454;53.254;10.400;2023-06-22T05:55:24;2.77;;;2.67;;
934;SDS011;454;53.254;10.400;2023-06-22T05:57:51;1.60;;;1.60;;
934;SDS011;454;53.254;10.400;2023-06-22T06:00:19;2.70;;;2.20;;
934;SDS011;454;53.254;10.400;2023-06-22T06:02:47;2.60;;;2.40;;
934;SDS011;454;53.254;10.400;2023-06-22T06:05:14;2.57;;;2.47;;
934;SDS011;454;53.254;10.400;2023-06-22T06:07:41;2.03;;;2.03;;
934;SDS011;454;53.254;10.400;2023-06-22T06:10:08;2.10;;;2.00;;
934;SDS011;454;53.254;10.400;2023-06-22T06:12:35;1.80;;;1.80;;
934;SDS011;454;53.254;10.400;2023-06-22T06:15:02;1.60;;;1.60;;
934;SDS011;454;53.254;10.400;2023-06-22T06:17:31;2.00;;;1.90;;
934;SDS011;454;53.254;10.400;2023-06-22T06:19:58;2.10;;;2.00;;
934;SDS011;454;53.254;10.400;2023-06-22T06:22:25;2.10;;;2.10;;
934;SDS011;454;53.254;10.400;2023-06-22T06:24:52;2.03;;;2.03;;
934;SDS011;454;53.254;10.400;2023-06-22T06:27:19;1.83;;;1.77;;
934;SDS011;454;53.254;10.400;2023-06-22T06:29:45;1.70;;;1.70;;
934;SDS011;454;53.254;10.400;2023-06-22T06:32:13;2.23;;;1.73;;
934;SDS011;454;53.254;10.400;2023-06-22T06:34:41;1.97;;;1.87;;
934;SDS011;454;53.254;10.400;2023-06-22T06:37:08;1.80;;;1.70;;
934;SDS011;454;53.254;10.400;2023-06-22T06:39:35;2.07;;;2.07;;
934;SDS011;454;53.254;10.400;2023-06-22T06:42:02;2.03;;;1.83;;
934;SDS011;454;53.254;10.400;2023-06-22T06:44:29;2.10;;;2.00;;
934;SDS011;454;53.254;10.400;2023-06-22T06:46:56;2.60;;;2.50;;
934;SDS011;454;53.254;10.400;2023-06-22T06:49:22;1.87;;;1.87;;
934;SDS011;454;53.254;10.400;2023-06-22T06:51:50;1.73;;;1.73;;
934;SDS011;454;53.254;10.400;2023-06-22T06:54:17;1.87;;;1.87;;
934;SDS011;454;53.254;10.400;2023-06-22T06:56:45;1.40;;;1.40;;
934;SDS011;454;53.254;10.400;2023-06-22T06:59:13;2.03;;;2.03;;
934;SDS011;454;53.254;10.400;2023-06-22T07:01:40;1.60;;;1.60;;
934;SDS011;454;53.254;10.400;2023-06-22T07:04:07;1.47;;;1.43;;
934;SDS011;454;53.254;10.400;2023-06-22T07:06:33;1.67;;;1.67;;
934;SDS011;454;53.254;10.400;2023-06-22T07:09:01;1.97;;;1.97;;
934;SDS011;454;53.254;10.400;2023-06-22T07:11:28;1.60;;;1.60;;
934;SDS011;454;53.254;10.400;2023-06-22T07:13:55;1.30;;;1.30;;
934;SDS011;454;53.254;10.400;2023-06-22T07:16:22;1.83;;;1.83;;
934;SDS011;454;53.254;10.400;2023-06-22T07:18:50;2.03;;;2.00;;
934;SDS011;454;53.254;10.400;2023-06-22T07:21:17;1.70;;;1.70;;
934;SDS011;454;53.254;10.400;2023-06-22T07:23:44;2.60;;;2.57;;
934;SDS011;454;53.254;10.400;2023-06-22T07:26:12;1.80;;;1.70;;
934;SDS011;454;53.254;10.400;2023-06-22T07:28:38;1.90;;;1.80;;
934;SDS011;454;53.254;10.400;2023-06-22T07:31:06;1.50;;;1.50;;
934;SDS011;454;53.254;10.400;2023-06-22T07:33:33;1.90;;;1.90;;
934;SDS011;454;53.254;10.400;2023-06-22T07:35:59;1.50;;;1.50;;
934;SDS011;454;53.254;10.400;2023-06-22T07:38:27;1.53;;;1.53;;
934;SDS011;454;53.254;10.400;2023-06-22T07:40:54;2.17;;;2.07;;
934;SDS011;454;53.254;10.400;2023-06-22T07:43:22;1.50;;;1.50;;
934;SDS011;454;53.254;10.400;2023-06-22T07:45:49;1.53;;;1.53;;
934;SDS011;454;53.254;10.400;2023-06-22T07:48:19;1.80;;;1.80;;
934;SDS011;454;53.254;10.400;2023-06-22T07:50:47;2.03;;;2.03;;
934;SDS011;454;53.254;10.400;2023-06-22T07:53:14;1.40;;;1.40;;
934;SDS011;454;53.254;10.400;2023-06-22T07:55:40;2.23;;;2.23;;
934;SDS011;454;53.254;10.400;2023-06-22T07:58:07;1.47;;;1.47;;
934;SDS011;454;53.254;10.400;2023-06-22T08:00:35;1.90;;;1.90;;
934;SDS011;454;53.254;10.400;2023-06-22T08:03:02;1.83;;;1.83;;
934;SDS011;454;53.254;10.400;2023-06-22T08:05:30;1.63;;;1.53;;
934;SDS011;454;53.254;10.400;2023-06-22T08:07:57;3.27;;;1.67;;
934;SDS011;454;53.254;10.400;2023-06-22T08:10:23;1.87;;;1.87;;
934;SDS011;454;53.254;10.400;2023-06-22T08:12:50;1.80;;;1.70;;
934;SDS011;454;53.254;10.400;2023-06-22T08:15:18;1.90;;;1.67;;
934;SDS011;454;53.254;10.400;2023-06-22T08:17:46;1.50;;;1.50;;
934;SDS011;454;53.254;10.400;2023-06-22T08:20:13;1.60;;;1.60;;
934;SDS011;454;53.254;10.400;2023-06-22T08:22:40;1.63;;;1.63;;
934;SDS011;454;53.254;10.400;2023-06-22T08:25:07;1.23;;;1.23;;
934;SDS011;454;53.254;10.400;2023-06-22T08:27:35;1.63;;;1.63;;
934;SDS011;454;53.254;10.400;2023-06-22T08:30:02;1.70;;;1.70;;
934;SDS011;454;53.254;10.400;2023-06-22T08:32:29;2.07;;;1.97;;
934;SDS011;454;53.254;10.400;2023-06-22T08:34:59;1.70;;;1.70;;
934;SDS011;454;53.254;10.400;2023-06-22T08:37:25;1.80;;;1.80;;
934;SDS011;454;53.254;10.400;2023-06-22T08:39:56;1.33;;;1.33;;
934;SDS011;454;53.254;10.400;2023-06-22T08:42:23;1.60;;;1.60;;
934;SDS011;454;53.254;10.400;2023-06-22T08:44:50;1.70;;;1.70;;
934;SDS011;454;53.254;10.400;2023-06-22T08:47:17;1.63;;;1.63;;
934;SDS011;454;53.254;10.400;2023-06-22T08:49:44;1.53;;;1.53;;
934;SDS011;454;53.254;10.400;2023-06-22T08:52:12;1.93;;;1.90;;
934;SDS011;454;53.254;10.400;2023-06-22T08:54:39;1.50;;;1.40;;
934;SDS011;454;53.254;10.400;2023-06-22T08:57:06;1.93;;;1.93;;
934;SDS011;454;53.254;10.400;2023-06-22T08:59:33;1.80;;;1.80;;
934;SDS011;454;53.254;10.400;2023-06-22T09:01:59;1.60;;;1.60;;
934;SDS011;454;53.254;10.400;2023-06-22T09:04:26;1.53;;;1.53;;
934;SDS011;454;53.254;10.400;2023-06-22T09:06:53;1.30;;;1.30;;
934;SDS011;454;53.254;10.400;2023-06-22T09:09:21;1.70;;;1.70;;
934;SDS011;454;53.254;10.400;2023-06-22T09:11:48;2.00;;;1.83;;
934;SDS011;454;53.254;10.400;2023-06-22T09:14:14;1.67;;;1.67;;
934;SDS011;454;53.254;10.400;2023-06-22T09:16:41;1.33;;;1.33;;
934;SDS011;454;53.254;10.400;2023-06-22T09:19:08;1.70;;;1.70;;
934;SDS011;454;53.254;10.400;2023-06-22T09:21:34;1.53;;;1.53;;
934;SDS011;454;53.254;10.400;2023-06-22T09:24:01;1.97;;;1.93;;
934;SDS011;454;53.254;10.400;2023-06-22T09:26:30;1.93;;;1.93;;
934;SDS011;454;53.254;10.400;2023-06-22T09:28:57;1.47;;;1.47;;
934;SDS011;454;53.254;10.400;2023-06-22T09:31:23;1.30;;;1.30;;
934;SDS011;454;53.254;10.400;2023-06-22T09:33:51;1.80;;;1.80;;
934;SDS011;454;53.254;10.400;2023-06-22T09:36:19;2.03;;;1.77;;
934;SDS011;454;53.254;10.400;2023-06-22T09:38:46;2.30;;;2.20;;
934;SDS011;454;53.254;10.400;2023-06-22T09:41:13;1.63;;;1.60;;
934;SDS011;454;53.254;10.400;2023-06-22T09:43:42;1.50;;;1.50;;
934;SDS011;454;53.254;10.400;2023-06-22T09:46:09;1.80;;;1.80;;
934;SDS011;454;53.254;10.400;2023-06-22T09:48:36;1.70;;;1.70;;
934;SDS011;454;53.254;10.400;2023-06-22T09:51:03;1.50;;;1.50;;
934;SDS011;454;53.254;10.400;2023-06-22T09:53:29;1.90;;;1.80;;
934;SDS011;454;53.254;10.400;2023-06-22T09:55:56;2.10;;;2.10;;
934;SDS011;454;53.254;10.400;2023-06-22T09:58:23;1.93;;;1.93;;
934;SDS011;454;53.254;10.400;2023-06-22T10:00:51;1.97;;;1.97;;
934;SDS011;454;53.254;10.400;2023-06-22T10:03:19;1.87;;;1.77;;
934;SDS011;454;53.254;10.400;2023-06-22T10:05:46;1.57;;;1.47;;
934;SDS011;454;53.254;10.400;2023-06-22T10:08:14;1.87;;;1.87;;
934;SDS011;454;53.254;10.400;2023-06-22T10:10:40;2.63;;;2.40;;
934;SDS011;454;53.254;10.400;2023-06-22T10:13:07;1.60;;;1.60;;
934;SDS011;454;53.254;10.400;2023-06-22T10:15:36;2.20;;;2.10;;
934;SDS011;454;53.254;10.400;2023-06-22T10:18:04;2.33;;;2.27;;
934;SDS011;454;53.254;10.400;2023-06-22T10:20:31;1.60;;;1.57;;
934;SDS011;454;53.254;10.400;2023-06-22T10:22:58;2.00;;;1.90;;
934;SDS011;454;53.254;10.400;2023-06-22T10:25:24;1.97;;;1.97;;
934;SDS011;454;53.254;10.400;2023-06-22T10:27:52;2.20;;;2.20;;
934;SDS011;454;53.254;10.400;2023-06-22T10:30:19;2.43;;;2.33;;
934;SDS011;454;53.254;10.400;2023-06-22T10:32:46;1.50;;;1.50;;
934;SDS011;454;53.254;10.400;2023-06-22T10:35:14;2.10;;;2.10;;
934;SDS011;454;53.254;10.400;2023-06-22T10:37:41;1.80;;;1.80;;
934;SDS011;454;53.254;10.400;2023-06-22T10:40:09;2.60;;;2.53;;
934;SDS011;454;53.254;10.400;2023-06-22T10:42:37;2.40;;;2.37;;
934;SDS011;454;53.254;10.400;2023-06-22T10:45:04;2.00;;;2.00;;
934;SDS011;454;53.254;10.400;2023-06-22T10:47:31;2.00;;;2.00;;
934;SDS011;454;53.254;10.400;2023-06-22T10:49:58;1.87;;;1.87;;
934;SDS011;454;53.254;10.400;2023-06-22T10:52:26;2.17;;;2.13;;
934;SDS011;454;53.254;10.400;2023-06-22T10:54:53;3.10;;;3.00;;
934;SDS011;454;53.254;10.400;2023-06-22T10:57:21;2.40;;;2.40;;
934;SDS011;454;53.254;10.400;2023-06-22T10:59:48;2.20;;;2.13;;
934;SDS011;454;53.254;10.400;2023-06-22T11:02:15;2.50;;;2.40;;
934;SDS011;454;53.254;10.400;2023-06-22T11:04:42;3.23;;;3.07;;
934;SDS011;454;53.254;10.400;2023-06-22T11:07:09;2.93;;;2.83;;
934;SDS011;454;53.254;10.400;2023-06-22T11:09:37;1.87;;;1.87;;
934;SDS011;454;53.254;10.400;2023-06-22T11:12:05;2.43;;;2.43;;
934;SDS011;454;53.254;10.400;2023-06-22T11:14:32;1.80;;;1.70;;
934;SDS011;454;53.254;10.400;2023-06-22T11:16:59;1.63;;;1.63;;
934;SDS011;454;53.254;10.400;2023-06-22T11:19:26;2.20;;;2.20;;
934;SDS011;454;53.254;10.400;2023-06-22T11:21:52;2.60;;;2.50;;
934;SDS011;454;53.254;10.400;2023-06-22T11:24:19;2.63;;;2.53;;
934;SDS011;454;53.254;10.400;2023-06-22T11:26:47;2.80;;;2.70;;
934;SDS011;454;53.254;10.400;2023-06-22T11:29:14;2.77;;;2.57;;
934;SDS011;454;53.254;10.400;2023-06-22T11:31:41;2.03;;;1.93;;
934;SDS011;454;53.254;10.400;2023-06-22T11:34:08;1.93;;;1.93;;
934;SDS011;454;53.254;10.400;2023-06-22T11:36:36;2.87;;;2.77;;
934;SDS011;454;53.254;10.400;2023-06-22T11:39:02;3.23;;;2.80;;
934;SDS011;454;53.254;10.400;2023-06-22T11:41:30;2.40;;;2.40;;
934;SDS011;454;53.254;10.400;2023-06-22T11:43:58;2.37;;;2.37;;
934;SDS011;454;53.254;10.400;2023-06-22T11:46:24;2.67;;;2.60;;
934;SDS011;454;53.254;10.400;2023-06-22T11:48:51;2.10;;;2.10;;
934;SDS011;454;53.254;10.400;2023-06-22T11:51:18;2.00;;;2.00;;
934;SDS011;454;53.254;10.400;2023-06-22T11:53:45;2.53;;;2.43;;
934;SDS011;454;53.254;10.400;2023-06-22T11:56:11;2.13;;;2.03;;
934;SDS011;454;53.254;10.400;2023-06-22T11:58:38;2.87;;;2.70;;
934;SDS011;454;53.254;10.400;2023-06-22T12:01:06;2.40;;;2.30;;
934;SDS011;454;53.254;10.400;2023-06-22T12:03:33;1.77;;;1.77;;
934;SDS011;454;53.254;10.400;2023-06-22T12:05:59;2.53;;;2.43;;
934;SDS011;454;53.254;10.400;2023-06-22T12:08:26;2.67;;;2.57;;
934;SDS011;454;53.254;10.400;2023-06-22T12:10:53;2.87;;;2.77;;
934;SDS011;454;53.254;10.400;2023-06-22T12:13:20;2.23;;;2.20;;
934;SDS011;454;53.254;10.400;2023-06-22T12:15:47;2.43;;;2.43;;
934;SDS011;454;53.254;10.400;2023-06-22T12:18:15;2.33;;;2.23;;
934;SDS011;454;53.254;10.400;2023-06-22T12:20:41;2.90;;;2.80;;
934;SDS011;454;53.254;10.400;2023-06-22T12:23:08;2.67;;;2.57;;
934;SDS011;454;53.254;10.400;2023-06-22T12:25:35;2.97;;;2.87;;
934;SDS011;454;53.254;10.400;2023-06-22T12:28:01;2.60;;;2.50;;
934;SDS011;454;53.254;10.400;2023-06-22T12:30:29;2.43;;;2.33;;
934;SDS011;454;53.254;10.400;2023-06-22T12:32:56;2.97;;;2.87;;
934;SDS011;454;53.254;10.400;2023-06-22T12:35:24;2.63;;;2.53;;
934;SDS011;454;53.254;10.400;2023-06-22T12:37:51;2.33;;;2.33;;
934;SDS011;454;53.254;10.400;2023-06-22T12:40:17;3.87;;;3.57;;
934;SDS011;454;53.254;10.400;2023-06-22T12:42:44;3.20;;;3.13;;
934;SDS011;454;53.254;10.400;2023-06-22T12:45:11;2.83;;;2.73;;
934;SDS011;454;53.254;10.400;2023-06-22T12:47:38;2.90;;;2.80;;
934;SDS011;454;53.254;10.400;2023-06-22T12:50:05;3.53;;;3.33;;
934;SDS011;454;53.254;10.400;2023-06-22T12:52:36;2.30;;;2.30;;
934;SDS011;454;53.254;10.400;2023-06-22T12:55:04;2.80;;;2.70;;
934;SDS011;454;53.254;10.400;2023-06-22T12:57:31;2.17;;;2.17;;
934;SDS011;454;53.254;10.400;2023-06-22T12:59:58;2.80;;;2.57;;
934;SDS011;454;53.254;10.400;2023-06-22T13:02:25;3.13;;;3.03;;
934;SDS011;454;53.254;10.400;2023-06-22T13:04:52;2.30;;;2.20;;
934;SDS011;454;53.254;10.400;2023-06-22T13:07:19;2.60;;;2.50;;
934;SDS011;454;53.254;10.400;2023-06-22T13:09:47;2.57;;;2.57;;
934;SDS011;454;53.254;10.400;2023-06-22T13:12:16;2.30;;;2.30;;
934;SDS011;454;53.254;10.400;2023-06-22T13:14:43;2.53;;;2.47;;
934;SDS011;454;53.254;10.400;2023-06-22T13:17:11;2.93;;;2.83;;
934;SDS011;454;53.254;10.400;2023-06-22T13:19:39;2.67;;;2.67;;
934;SDS011;454;53.254;10.400;2023-06-22T13:22:09;3.10;;;2.90;;
934;SDS011;454;53.254;10.400;2023-06-22T13:24:54;3.00;;;2.83;;
934;SDS011;454;53.254;10.400;2023-06-22T13:27:21;2.60;;;2.50;;
934;SDS011;454;53.254;10.400;2023-06-22T13:29:47;3.10;;;2.90;;
934;SDS011;454;53.254;10.400;2023-06-22T13:32:14;3.03;;;2.93;;
934;SDS011;454;53.254;10.400;2023-06-22T13:34:41;2.40;;;2.40;;
934;SDS011;454;53.254;10.400;2023-06-22T13:37:08;2.90;;;2.80;;
934;SDS011;454;53.254;10.400;2023-06-22T13:39:35;2.50;;;2.50;;
934;SDS011;454;53.254;10.400;2023-06-22T13:42:03;3.17;;;2.87;;
934;SDS011;454;53.254;10.400;2023-06-22T13:44:30;2.97;;;2.87;;
934;SDS011;454;53.254;10.400;2023-06-22T13:46:57;2.20;;;2.10;;
934;SDS011;454;53.254;10.400;2023-06-22T13:49:23;2.60;;;2.50;;
934;SDS011;454;53.254;10.400;2023-06-22T13:51:50;3.63;;;3.40;;
934;SDS011;454;53.254;10.400;2023-06-22T13:54:17;2.87;;;2.67;;
934;SDS011;454;53.254;10.400;2023-06-22T13:56:43;2.60;;;2.50;;
934;SDS011;454;53.254;10.400;2023-06-22T13:59:11;2.83;;;2.70;;
934;SDS011;454;53.254;10.400;2023-06-22T14:01:38;2.60;;;2.50;;
934;SDS011;454;53.254;10.400;2023-06-22T14:04:06;2.57;;;2.37;;
934;SDS011;454;53.254;10.400;2023-06-22T14:06:32;2.50;;;2.40;;
934;SDS011;454;53.254;10.400;2023-06-22T14:08:59;3.07;;;2.87;;
934;SDS011;454;53.254;10.400;2023-06-22T14:11:26;3.30;;;3.10;;
934;SDS011;454;53.254;10.400;2023-06-22T14:13:52;2.60;;;2.50;;
934;SDS011;454;53.254;10.400;2023-06-22T14:16:20;2.30;;;2.20;;
934;SDS011;454;53.254;10.400;2023-06-22T14:18:47;2.13;;;2.03;;
934;SDS011;454;53.254;10.400;2023-06-22T14:21:14;2.67;;;2.67;;
934;SDS011;454;53.254;10.400;2023-06-22T14:23:40;2.57;;;2.47;;
934;SDS011;454;53.254;10.400;2023-06-22T14:26:12;3.30;;;3.10;;
934;SDS011;454;53.254;10.400;2023-06-22T14:28:38;3.50;;;3.40;;
934;SDS011;454;53.254;10.400;2023-06-22T14:31:05;2.23;;;2.17;;
934;SDS011;454;53.254;10.400;2023-06-22T14:33:33;2.60;;;2.50;;
934;SDS011;454;53.254;10.400;2023-06-22T14:36:00;3.00;;;2.90;;
934;SDS011;454;53.254;10.400;2023-06-22T14:38:27;3.60;;;3.40;;
934;SDS011;454;53.254;10.400;2023-06-22T14:40:54;2.80;;;2.70;;
934;SDS011;454;53.254;10.400;2023-06-22T14:43:20;3.07;;;2.77;;
934;SDS011;454;53.254;10.400;2023-06-22T14:45:47;2.87;;;2.77;;
934;SDS011;454;53.254;10.400;2023-06-22T14:48:14;2.83;;;2.73;;
934;SDS011;454;53.254;10.400;2023-06-22T14:50:42;3.50;;;3.30;;
934;SDS011;454;53.254;10.400;2023-06-22T14:53:09;3.60;;;3.30;;
934;SDS011;454;53.254;10.400;2023-06-22T14:55:35;3.07;;;2.90;;
934;SDS011;454;53.254;10.400;2023-06-22T14:58:02;3.10;;;3.00;;
934;SDS011;454;53.254;10.400;2023-06-22T15:00:29;2.77;;;2.67;;
934;SDS011;454;53.254;10.400;2023-06-22T15:02:55;3.90;;;3.63;;
934;SDS011;454;53.254;10.400;2023-06-22T15:05:22;3.03;;;2.93;;
934;SDS011;454;53.254;10.400;2023-06-22T15:07:50;3.87;;;3.57;;
934;SDS011;454;53.254;10.400;2023-06-22T15:10:17;2.70;;;2.53;;
934;SDS011;454;53.254;10.400;2023-06-22T15:12:44;4.10;;;3.90;;
934;SDS011;454;53.254;10.400;2023-06-22T15:15:10;4.77;;;2.67;;
934;SDS011;454;53.254;10.400;2023-06-22T15:17:37;2.37;;;2.37;;
934;SDS011;454;53.254;10.400;2023-06-22T15:20:04;2.53;;;2.50;;
934;SDS011;454;53.254;10.400;2023-06-22T15:22:31;2.77;;;2.67;;
934;SDS011;454;53.254;10.400;2023-06-22T15:24:59;3.07;;;2.97;;
934;SDS011;454;53.254;10.400;2023-06-22T15:27:28;2.80;;;2.70;;
934;SDS011;454;53.254;10.400;2023-06-22T15:29:55;2.93;;;2.83;;
934;SDS011;454;53.254;10.400;2023-06-22T15:32:22;3.00;;;2.80;;
934;SDS011;454;53.254;10.400;2023-06-22T15:34:49;3.63;;;3.33;;
934;SDS011;454;53.254;10.400;2023-06-22T15:37:18;2.90;;;2.90;;
934;SDS011;454;53.254;10.400;2023-06-22T15:39:45;4.20;;;4.00;;
934;SDS011;454;53.254;10.400;2023-06-22T15:42:13;3.17;;;2.90;;
934;SDS011;454;53.254;10.400;2023-06-22T15:44:40;3.80;;;3.67;;
934;SDS011;454;53.254;10.400;2023-06-22T15:47:07;2.97;;;2.87;;
934;SDS011;454;53.254;10.400;2023-06-22T15:49:33;2.73;;;2.70;;
934;SDS011;454;53.254;10.400;2023-06-22T15:52:00;2.73;;;2.63;;
934;SDS011;454;53.254;10.400;2023-06-22T15:54:27;4.27;;;3.57;;
934;SDS011;454;53.254;10.400;2023-06-22T15:56:54;5.43;;;4.20;;
934;SDS011;454;53.254;10.400;2023-06-22T15:59:22;2.40;;;2.40;;
934;SDS011;454;53.254;10.400;2023-06-22T16:01:49;4.17;;;3.97;;
934;SDS011;454;53.254;10.400;2023-06-22T16:04:16;3.20;;;3.00;;
934;SDS011;454;53.254;10.400;2023-06-22T16:06:42;3.90;;;3.47;;
934;SDS011;454;53.254;10.400;2023-06-22T16:09:09;2.97;;;2.83;;
934;SDS011;454;53.254;10.400;2023-06-22T16:11:36;4.70;;;4.30;;
934;SDS011;454;53.254;10.400;2023-06-22T16:14:02;2.77;;;2.67;;
934;SDS011;454;53.254;10.400;2023-06-22T16:16:30;3.07;;;2.90;;
934;SDS011;454;53.254;10.400;2023-06-22T16:18:57;4.00;;;3.77;;
934;SDS011;454;53.254;10.400;2023-06-22T16:21:24;3.50;;;3.40;;
934;SDS011;454;53.254;10.400;2023-06-22T16:23:51;4.10;;;3.90;;
934;SDS011;454;53.254;10.400;2023-06-22T16:26:18;4.60;;;4.30;;
934;SDS011;454;53.254;10.400;2023-06-22T16:28:45;3.93;;;3.73;;
934;SDS011;454;53.254;10.400;2023-06-22T16:31:11;4.10;;;3.70;;
934;SDS011;454;53.254;10.400;2023-06-22T16:33:39;3.30;;;3.20;;
934;SDS011;454;53.254;10.400;2023-06-22T16:36:11;4.87;;;4.57;;
934;SDS011;454;53.254;10.400;2023-06-22T16:38:38;4.53;;;4.33;;
934;SDS011;454;53.254;10.400;2023-06-22T16:41:05;5.23;;;4.83;;
934;SDS011;454;53.254;10.400;2023-06-22T16:43:34;4.20;;;4.00;;
934;SDS011;454;53.254;10.400;2023-06-22T16:46:02;4.20;;;4.00;;
934;SDS011;454;53.254;10.400;2023-06-22T16:48:29;5.30;;;4.90;;
934;SDS011;454;53.254;10.400;2023-06-22T16:50:57;6.07;;;5.57;;
934;SDS011;454;53.254;10.400;2023-06-22T16:53:24;4.87;;;4.57;;
934;SDS011;454;53.254;10.400;2023-06-22T16:55:51;5.10;;;4.77;;
934;SDS011;454;53.254;10.400;2023-06-22T16:58:19;4.07;;;3.87;;
934;SDS011;454;53.254;10.400;2023-06-22T17:00:49;5.80;;;5.40;;
934;SDS011;454;53.254;10.400;2023-06-22T17:03:18;5.80;;;5.50;;
934;SDS011;454;53.254;10.400;2023-06-22T17:05:49;5.17;;;4.87;;
934;SDS011;454;53.254;10.400;2023-06-22T17:08:18;8.67;;;5.70;;
934;SDS011;454;53.254;10.400;2023-06-22T17:10:46;5.60;;;5.27;;
934;SDS011;454;53.254;10.400;2023-06-22T17:13:13;6.87;;;6.27;;
934;SDS011;454;53.254;10.400;2023-06-22T17:15:40;5.70;;;5.20;;
934;SDS011;454;53.254;10.400;2023-06-22T17:18:08;6.10;;;5.37;;
934;SDS011;454;53.254;10.400;2023-06-22T17:20:36;4.47;;;4.20;;
934;SDS011;454;53.254;10.400;2023-06-22T17:23:02;7.67;;;6.40;;
934;SDS011;454;53.254;10.400;2023-06-22T17:25:32;7.50;;;6.87;;
934;SDS011;454;53.254;10.400;2023-06-22T17:28:01;7.53;;;6.83;;
934;SDS011;454;53.254;10.400;2023-06-22T17:30:28;6.00;;;5.50;;
934;SDS011;454;53.254;10.400;2023-06-22T17:32:56;5.90;;;5.57;;
934;SDS011;454;53.254;10.400;2023-06-22T17:35:23;12.03;;;6.10;;
934;SDS011;454;53.254;10.400;2023-06-22T17:37:51;7.07;;;6.47;;
934;SDS011;454;53.254;10.400;2023-06-22T17:40:20;6.13;;;5.63;;
934;SDS011;454;53.254;10.400;2023-06-22T17:42:49;6.53;;;6.13;;
934;SDS011;454;53.254;10.400;2023-06-22T17:45:16;7.77;;;7.00;;
934;SDS011;454;53.254;10.400;2023-06-22T17:47:47;6.90;;;6.40;;
934;SDS011;454;53.254;10.400;2023-06-22T17:50:14;5.97;;;5.47;;
934;SDS011;454;53.254;10.400;2023-06-22T17:52:41;6.07;;;5.50;;
934;SDS011;454;53.254;10.400;2023-06-22T17:55:14;6.00;;;5.60;;
934;SDS011;454;53.254;10.400;2023-06-22T17:57:41;4.57;;;4.20;;
934;SDS011;454;53.254;10.400;2023-06-22T18:00:13;2.60;;;2.50;;
934;SDS011;454;53.254;10.400;2023-06-22T18:02:40;3.63;;;3.50;;
934;SDS011;454;53.254;10.400;2023-06-22T18:05:08;3.47;;;3.17;;
934;SDS011;454;53.254;10.400;2023-06-22T18:07:35;3.13;;;3.00;;
934;SDS011;454;53.254;10.400;2023-06-22T18:10:03;3.00;;;2.80;;
934;SDS011;454;53.254;10.400;2023-06-22T18:12:31;3.00;;;2.90;;
934;SDS011;454;53.254;10.400;2023-06-22T18:14:59;2.50;;;2.37;;
934;SDS011;454;53.254;10.400;2023-06-22T18:17:27;3.50;;;3.40;;
934;SDS011;454;53.254;10.400;2023-06-22T18:19:55;3.17;;;3.00;;
934;SDS011;454;53.254;10.400;2023-06-22T18:22:24;3.60;;;3.40;;
934;SDS011;454;53.254;10.400;2023-06-22T18:24:52;2.70;;;2.50;;
934;SDS011;454;53.254;10.400;2023-06-22T18:27:18;2.90;;;2.80;;
934;SDS011;454;53.254;10.400;2023-06-22T18:29:47;2.30;;;2.20;;
934;SDS011;454;53.254;10.400;2023-06-22T18:32:15;2.43;;;2.33;;
934;SDS011;454;53.254;10.400;2023-06-22T18:34:44;2.27;;;2.07;;
934;SDS011;454;53.254;10.400;2023-06-22T18:37:11;2.53;;;2.53;;
934;SDS011;454;53.254;10.400;2023-06-22T18:39:40;2.37;;;2.27;;
934;SDS011;454;53.254;10.400;2023-06-22T18:42:10;2.87;;;2.50;;
934;SDS011;454;53.254;10.400;2023-06-22T18:44:40;2.67;;;2.57;;
934;SDS011;454;53.254;10.400;2023-06-22T18:47:08;2.90;;;2.80;;
934;SDS011;454;53.254;10.400;2023-06-22T18:49:46;3.73;;;1.87;;
934;SDS011;454;53.254;10.400;2023-06-22T18:52:14;2.50;;;2.40;;
934;SDS011;454;53.254;10.400;2023-06-22T18:54:42;10.17;;;2.30;;
934;SDS011;454;53.254;10.400;2023-06-22T18:57:13;2.83;;;2.60;;
934;SDS011;454;53.254;10.400;2023-06-22T18:59:46;2.00;;;1.90;;
934;SDS011;454;53.254;10.400;2023-06-22T19:02:14;1.93;;;1.93;;
934;SDS011;454;53.254;10.400;2023-06-22T19:04:42;2.30;;;2.10;;
934;SDS011;454;53.254;10.400;2023-06-22T19:07:11;2.23;;;2.13;;
934;SDS011;454;53.254;10.400;2023-06-22T19:09:38;2.40;;;2.30;;
934;SDS011;454;53.254;10.400;2023-06-22T19:12:18;2.73;;;2.57;;
934;SDS011;454;53.254;10.400;2023-06-22T19:14:59;2.30;;;2.20;;
934;SDS011;454;53.254;10.400;2023-06-22T19:17:26;2.53;;;2.37;;
934;SDS011;454;53.254;10.400;2023-06-22T19:19:53;2.57;;;2.47;;
934;SDS011;454;53.254;10.400;2023-06-22T19:22:24;2.47;;;2.37;;
934;SDS011;454;53.254;10.400;2023-06-22T19:25:16;2.50;;;2.40;;
934;SDS011;454;53.254;10.400;2023-06-22T19:27:45;2.00;;;1.90;;
934;SDS011;454;53.254;10.400;2023-06-22T19:30:14;1.67;;;1.57;;
934;SDS011;454;53.254;10.400;2023-06-22T19:32:42;2.33;;;2.23;;